sensor_id;sensor_type;location;lat;lon;timestamp;temperature;humidity
68842;SHT35;55849;48.482;2.332;2023-04-01T00:01:16;12.09;77.54
68842;SHT35;55849;48.482;2.332;2023-04-01T00:04:19;12.11;77.44
68842;SHT35;55849;48.482;2.332;2023-04-01T00:07:21;12.11;77.49
68842;SHT35;55849;48.482;2.332;2023-04-01T00:10:23;12.15;77.67
68842;SHT35;55849;48.482;2.332;2023-04-01T00:13:25;12.15;77.80
68842;SHT35;55849;48.482;2.332;2023-04-01T00:16:27;12.14;77.59
68842;SHT35;55849;48.482;2.332;2023-04-01T00:19:30;12.16;77.68
68842;SHT35;55849;48.482;2.332;2023-04-01T00:22:32;12.16;77.79
68842;SHT35;55849;48.482;2.332;2023-04-01T00:25:35;12.19;77.38
68842;SHT35;55849;48.482;2.332;2023-04-01T00:28:36;12.21;77.58
68842;SHT35;55849;48.482;2.332;2023-04-01T00:31:38;12.21;77.71
68842;SHT35;55849;48.482;2.332;2023-04-01T00:34:41;12.25;77.52
68842;SHT35;55849;48.482;2.332;2023-04-01T00:37:44;12.25;77.33
68842;SHT35;55849;48.482;2.332;2023-04-01T00:40:47;12.26;77.14
68842;SHT35;55849;48.482;2.332;2023-04-01T00:43:50;12.25;77.06
68842;SHT35;55849;48.482;2.332;2023-04-01T00:46:52;12.24;77.10
68842;SHT35;55849;48.482;2.332;2023-04-01T00:49:55;12.22;77.14
68842;SHT35;55849;48.482;2.332;2023-04-01T00:52:57;12.24;76.90
68842;SHT35;55849;48.482;2.332;2023-04-01T00:56:02;12.26;76.97
68842;SHT35;55849;48.482;2.332;2023-04-01T00:59:09;12.24;76.86
68842;SHT35;55849;48.482;2.332;2023-04-01T01:02:13;12.25;77.35
68842;SHT35;55849;48.482;2.332;2023-04-01T01:05:21;12.24;77.25
68842;SHT35;55849;48.482;2.332;2023-04-01T01:08:33;12.24;77.30
68842;SHT35;55849;48.482;2.332;2023-04-01T01:11:42;12.26;77.44
68842;SHT35;55849;48.482;2.332;2023-04-01T01:14:55;12.28;77.91
68842;SHT35;55849;48.482;2.332;2023-04-01T01:18:03;12.26;77.74
68842;SHT35;55849;48.482;2.332;2023-04-01T01:21:26;12.21;77.58
68842;SHT35;55849;48.482;2.332;2023-04-01T01:24:55;12.21;77.81
68842;SHT35;55849;48.482;2.332;2023-04-01T01:28:19;12.21;77.87
68842;SHT35;55849;48.482;2.332;2023-04-01T01:31:33;12.21;77.82
68842;SHT35;55849;48.482;2.332;2023-04-01T01:34:43;12.18;77.87
68842;SHT35;55849;48.482;2.332;2023-04-01T01:37:54;12.22;77.58
68842;SHT35;55849;48.482;2.332;2023-04-01T01:40:57;12.19;77.42
68842;SHT35;55849;48.482;2.332;2023-04-01T01:44:01;12.22;77.61
68842;SHT35;55849;48.482;2.332;2023-04-01T01:47:05;12.22;77.52
68842;SHT35;55849;48.482;2.332;2023-04-01T01:50:08;12.24;77.37
68842;SHT35;55849;48.482;2.332;2023-04-01T01:53:13;12.24;77.23
68842;SHT35;55849;48.482;2.332;2023-04-01T01:56:17;12.26;77.11
68842;SHT35;55849;48.482;2.332;2023-04-01T01:59:20;12.26;76.98
68842;SHT35;55849;48.482;2.332;2023-04-01T02:02:24;12.25;77.26
68842;SHT35;55849;48.482;2.332;2023-04-01T02:05:28;12.28;77.22
68842;SHT35;55849;48.482;2.332;2023-04-01T02:08:35;12.28;76.78
68842;SHT35;55849;48.482;2.332;2023-04-01T02:11:42;12.29;76.90
68842;SHT35;55849;48.482;2.332;2023-04-01T02:14:47;12.28;77.22
68842;SHT35;55849;48.482;2.332;2023-04-01T02:17:51;12.29;77.04
68842;SHT35;55849;48.482;2.332;2023-04-01T02:20:53;12.29;77.08
68842;SHT35;55849;48.482;2.332;2023-04-01T02:23:58;12.29;76.75
68842;SHT35;55849;48.482;2.332;2023-04-01T02:27:03;12.28;77.23
68842;SHT35;55849;48.482;2.332;2023-04-01T02:30:05;12.29;76.79
68842;SHT35;55849;48.482;2.332;2023-04-01T02:33:07;12.28;76.82
68842;SHT35;55849;48.482;2.332;2023-04-01T02:36:11;12.30;76.84
68842;SHT35;55849;48.482;2.332;2023-04-01T02:39:15;12.30;77.18
68842;SHT35;55849;48.482;2.332;2023-04-01T02:42:16;12.33;76.65
68842;SHT35;55849;48.482;2.332;2023-04-01T02:45:18;12.32;77.10
68842;SHT35;55849;48.482;2.332;2023-04-01T02:48:20;12.32;77.28
68842;SHT35;55849;48.482;2.332;2023-04-01T02:51:21;12.34;77.19
68842;SHT35;55849;48.482;2.332;2023-04-01T02:54:24;12.30;77.10
68842;SHT35;55849;48.482;2.332;2023-04-01T02:57:26;12.29;77.08
68842;SHT35;55849;48.482;2.332;2023-04-01T03:00:29;12.29;77.17
68842;SHT35;55849;48.482;2.332;2023-04-01T03:03:30;12.32;77.21
68842;SHT35;55849;48.482;2.332;2023-04-01T03:06:32;12.32;77.36
68842;SHT35;55849;48.482;2.332;2023-04-01T03:09:35;12.29;77.21
68842;SHT35;55849;48.482;2.332;2023-04-01T03:12:37;12.30;76.83
68842;SHT35;55849;48.482;2.332;2023-04-01T03:15:38;12.32;76.63
68842;SHT35;55849;48.482;2.332;2023-04-01T03:18:40;12.30;76.88
68842;SHT35;55849;48.482;2.332;2023-04-01T03:21:42;12.29;76.96
68842;SHT35;55849;48.482;2.332;2023-04-01T03:24:44;12.28;76.77
68842;SHT35;55849;48.482;2.332;2023-04-01T03:27:46;12.29;76.54
68842;SHT35;55849;48.482;2.332;2023-04-01T03:30:48;12.28;76.65
68842;SHT35;55849;48.482;2.332;2023-04-01T03:33:49;12.26;76.50
68842;SHT35;55849;48.482;2.332;2023-04-01T03:36:51;12.24;76.34
68842;SHT35;55849;48.482;2.332;2023-04-01T03:39:54;12.28;76.12
68842;SHT35;55849;48.482;2.332;2023-04-01T03:42:56;12.29;76.16
68842;SHT35;55849;48.482;2.332;2023-04-01T03:45:58;12.26;76.14
68842;SHT35;55849;48.482;2.332;2023-04-01T03:49:00;12.26;76.17
68842;SHT35;55849;48.482;2.332;2023-04-01T03:52:02;12.28;76.19
68842;SHT35;55849;48.482;2.332;2023-04-01T03:55:06;12.29;76.11
68842;SHT35;55849;48.482;2.332;2023-04-01T03:58:08;12.29;75.86
68842;SHT35;55849;48.482;2.332;2023-04-01T04:01:17;12.26;75.74
68842;SHT35;55849;48.482;2.332;2023-04-01T04:04:20;12.25;75.69
68842;SHT35;55849;48.482;2.332;2023-04-01T04:07:21;12.26;75.77
68842;SHT35;55849;48.482;2.332;2023-04-01T04:10:25;12.26;75.96
68842;SHT35;55849;48.482;2.332;2023-04-01T04:13:26;12.29;75.76
68842;SHT35;55849;48.482;2.332;2023-04-01T04:16:28;12.25;75.59
68842;SHT35;55849;48.482;2.332;2023-04-01T04:19:31;12.22;75.84
68842;SHT35;55849;48.482;2.332;2023-04-01T04:22:34;12.24;75.79
68842;SHT35;55849;48.482;2.332;2023-04-01T04:25:37;12.22;75.87
68842;SHT35;55849;48.482;2.332;2023-04-01T04:28:39;12.22;76.09
68842;SHT35;55849;48.482;2.332;2023-04-01T04:31:41;12.19;75.95
68842;SHT35;55849;48.482;2.332;2023-04-01T04:34:43;12.19;76.07
68842;SHT35;55849;48.482;2.332;2023-04-01T04:37:44;12.21;76.30
68842;SHT35;55849;48.482;2.332;2023-04-01T04:40:47;12.19;76.75
68842;SHT35;55849;48.482;2.332;2023-04-01T04:43:51;12.22;76.24
68842;SHT35;55849;48.482;2.332;2023-04-01T04:46:52;12.19;76.09
68842;SHT35;55849;48.482;2.332;2023-04-01T04:49:54;12.21;76.10
68842;SHT35;55849;48.482;2.332;2023-04-01T04:52:56;12.21;76.21
68842;SHT35;55849;48.482;2.332;2023-04-01T04:55:59;12.22;76.68
68842;SHT35;55849;48.482;2.332;2023-04-01T04:59:00;12.22;76.25
68842;SHT35;55849;48.482;2.332;2023-04-01T05:02:02;12.22;76.10
68842;SHT35;55849;48.482;2.332;2023-04-01T05:05:04;12.21;76.14
68842;SHT35;55849;48.482;2.332;2023-04-01T05:08:06;12.18;76.30
68842;SHT35;55849;48.482;2.332;2023-04-01T05:11:12;12.18;76.20
68842;SHT35;55849;48.482;2.332;2023-04-01T05:14:15;12.18;76.48
68842;SHT35;55849;48.482;2.332;2023-04-01T05:17:17;12.16;76.34
68842;SHT35;55849;48.482;2.332;2023-04-01T05:20:19;12.15;76.79
68842;SHT35;55849;48.482;2.332;2023-04-01T05:23:21;12.14;76.78
68842;SHT35;55849;48.482;2.332;2023-04-01T05:26:24;12.15;76.66
68842;SHT35;55849;48.482;2.332;2023-04-01T05:29:26;12.11;76.61
68842;SHT35;55849;48.482;2.332;2023-04-01T05:32:28;12.11;76.97
68842;SHT35;55849;48.482;2.332;2023-04-01T05:35:29;12.11;76.90
68842;SHT35;55849;48.482;2.332;2023-04-01T05:38:31;12.08;77.19
68842;SHT35;55849;48.482;2.332;2023-04-01T05:41:36;12.06;77.43
68842;SHT35;55849;48.482;2.332;2023-04-01T05:44:37;12.11;77.60
68842;SHT35;55849;48.482;2.332;2023-04-01T05:47:39;12.09;77.57
68842;SHT35;55849;48.482;2.332;2023-04-01T05:50:41;12.11;76.85
68842;SHT35;55849;48.482;2.332;2023-04-01T05:53:42;12.08;77.01
68842;SHT35;55849;48.482;2.332;2023-04-01T05:56:46;12.09;76.83
68842;SHT35;55849;48.482;2.332;2023-04-01T05:59:47;12.08;76.63
68842;SHT35;55849;48.482;2.332;2023-04-01T06:02:49;12.09;76.88
68842;SHT35;55849;48.482;2.332;2023-04-01T06:05:52;12.06;76.96
68842;SHT35;55849;48.482;2.332;2023-04-01T06:08:56;12.08;76.91
68842;SHT35;55849;48.482;2.332;2023-04-01T06:12:20;12.06;76.78
68842;SHT35;55849;48.482;2.332;2023-04-01T06:15:34;12.05;77.31
68842;SHT35;55849;48.482;2.332;2023-04-01T06:18:48;12.02;77.64
68842;SHT35;55849;48.482;2.332;2023-04-01T06:22:07;12.04;77.70
68842;SHT35;55849;48.482;2.332;2023-04-01T06:25:31;11.99;78.24
68842;SHT35;55849;48.482;2.332;2023-04-01T06:28:58;12.02;77.91
68842;SHT35;55849;48.482;2.332;2023-04-01T06:32:13;12.04;77.77
68842;SHT35;55849;48.482;2.332;2023-04-01T06:39:09;12.05;77.52
68842;SHT35;55849;48.482;2.332;2023-04-01T06:42:26;12.06;77.21
68842;SHT35;55849;48.482;2.332;2023-04-01T06:45:38;12.02;77.37
68842;SHT35;55849;48.482;2.332;2023-04-01T06:48:57;12.02;77.58
68842;SHT35;55849;48.482;2.332;2023-04-01T06:52:08;12.04;77.34
68842;SHT35;55849;48.482;2.332;2023-04-01T06:55:29;12.04;77.41
68842;SHT35;55849;48.482;2.332;2023-04-01T06:58:38;12.02;77.27
68842;SHT35;55849;48.482;2.332;2023-04-01T07:01:45;12.02;77.38
68842;SHT35;55849;48.482;2.332;2023-04-01T07:04:48;12.04;77.25
68842;SHT35;55849;48.482;2.332;2023-04-01T07:07:54;12.05;77.31
68842;SHT35;55849;48.482;2.332;2023-04-01T07:11:01;12.05;77.60
68842;SHT35;55849;48.482;2.332;2023-04-01T07:14:09;12.09;77.21
68842;SHT35;55849;48.482;2.332;2023-04-01T07:17:16;12.09;77.24
68842;SHT35;55849;48.482;2.332;2023-04-01T07:20:22;12.14;77.33
68842;SHT35;55849;48.482;2.332;2023-04-01T07:23:29;12.19;77.41
68842;SHT35;55849;48.482;2.332;2023-04-01T07:26:33;12.22;77.19
68842;SHT35;55849;48.482;2.332;2023-04-01T07:29:35;12.25;77.36
68842;SHT35;55849;48.482;2.332;2023-04-01T07:32:42;12.24;77.21
68842;SHT35;55849;48.482;2.332;2023-04-01T07:35:49;12.28;77.03
68842;SHT35;55849;48.482;2.332;2023-04-01T07:39:00;12.33;77.10
68842;SHT35;55849;48.482;2.332;2023-04-01T07:42:10;12.34;76.39
68842;SHT35;55849;48.482;2.332;2023-04-01T07:45:19;12.37;76.72
68842;SHT35;55849;48.482;2.332;2023-04-01T07:48:27;12.43;75.88
68842;SHT35;55849;48.482;2.332;2023-04-01T07:51:39;12.43;75.35
68842;SHT35;55849;48.482;2.332;2023-04-01T07:54:48;12.47;75.15
68842;SHT35;55849;48.482;2.332;2023-04-01T07:57:57;12.51;75.25
68842;SHT35;55849;48.482;2.332;2023-04-01T08:01:07;12.53;75.80
68842;SHT35;55849;48.482;2.332;2023-04-01T08:04:25;12.59;76.02
68842;SHT35;55849;48.482;2.332;2023-04-01T08:07:34;12.61;76.12
68842;SHT35;55849;48.482;2.332;2023-04-01T08:10:45;12.67;76.11
68842;SHT35;55849;48.482;2.332;2023-04-01T08:13:53;12.68;75.69
68842;SHT35;55849;48.482;2.332;2023-04-01T08:17:02;12.68;75.85
68842;SHT35;55849;48.482;2.332;2023-04-01T08:20:18;12.75;76.18
68842;SHT35;55849;48.482;2.332;2023-04-01T08:23:27;12.71;75.55
68842;SHT35;55849;48.482;2.332;2023-04-01T08:26:34;12.71;76.08
68842;SHT35;55849;48.482;2.332;2023-04-01T08:29:41;12.78;75.90
68842;SHT35;55849;48.482;2.332;2023-04-01T08:32:47;12.80;75.59
68842;SHT35;55849;48.482;2.332;2023-04-01T08:35:54;12.81;75.41
68842;SHT35;55849;48.482;2.332;2023-04-01T08:39:01;12.84;75.18
68842;SHT35;55849;48.482;2.332;2023-04-01T08:42:38;12.85;75.51
68842;SHT35;55849;48.482;2.332;2023-04-01T08:45:53;12.88;75.40
68842;SHT35;55849;48.482;2.332;2023-04-01T08:49:10;12.91;75.30
68842;SHT35;55849;48.482;2.332;2023-04-01T08:52:33;12.98;75.09
68842;SHT35;55849;48.482;2.332;2023-04-01T08:55:40;13.02;74.76
68842;SHT35;55849;48.482;2.332;2023-04-01T08:58:59;13.05;74.68
68842;SHT35;55849;48.482;2.332;2023-04-01T09:02:29;13.10;74.61
68842;SHT35;55849;48.482;2.332;2023-04-01T09:05:47;13.15;74.89
68842;SHT35;55849;48.482;2.332;2023-04-01T09:09:15;13.18;74.91
68842;SHT35;55849;48.482;2.332;2023-04-01T09:12:29;13.23;74.25
68842;SHT35;55849;48.482;2.332;2023-04-01T09:15:42;13.24;74.57
68842;SHT35;55849;48.482;2.332;2023-04-01T09:19:09;13.32;74.48
68842;SHT35;55849;48.482;2.332;2023-04-01T09:22:24;13.33;73.39
68842;SHT35;55849;48.482;2.332;2023-04-01T09:25:38;13.37;73.34
68842;SHT35;55849;48.482;2.332;2023-04-01T09:28:58;13.42;72.75
68842;SHT35;55849;48.482;2.332;2023-04-01T09:32:18;13.44;73.10
68842;SHT35;55849;48.482;2.332;2023-04-01T09:35:38;13.50;72.87
68842;SHT35;55849;48.482;2.332;2023-04-01T09:38:54;13.50;72.44
68842;SHT35;55849;48.482;2.332;2023-04-01T09:42:07;13.51;72.16
68842;SHT35;55849;48.482;2.332;2023-04-01T09:45:27;13.53;72.91
68842;SHT35;55849;48.482;2.332;2023-04-01T09:48:47;13.55;72.13
68842;SHT35;55849;48.482;2.332;2023-04-01T09:52:02;13.54;72.96
68842;SHT35;55849;48.482;2.332;2023-04-01T09:55:24;13.60;73.99
68842;SHT35;55849;48.482;2.332;2023-04-01T09:58:52;13.58;73.35
68842;SHT35;55849;48.482;2.332;2023-04-01T10:02:31;13.60;73.20
68842;SHT35;55849;48.482;2.332;2023-04-01T10:13:14;13.74;72.13
68842;SHT35;55849;48.482;2.332;2023-04-01T10:16:58;13.78;71.61
68842;SHT35;55849;48.482;2.332;2023-04-01T10:20:28;13.79;71.52
68842;SHT35;55849;48.482;2.332;2023-04-01T10:23:57;13.79;70.74
68842;SHT35;55849;48.482;2.332;2023-04-01T10:27:29;13.77;70.95
68842;SHT35;55849;48.482;2.332;2023-04-01T10:30:55;13.83;70.65
68842;SHT35;55849;48.482;2.332;2023-04-01T10:38:14;13.86;71.36
68842;SHT35;55849;48.482;2.332;2023-04-01T10:41:37;13.90;71.78
68842;SHT35;55849;48.482;2.332;2023-04-01T10:56:14;14.10;71.59
68842;SHT35;55849;48.482;2.332;2023-04-01T11:18:11;14.51;70.03
68842;SHT35;55849;48.482;2.332;2023-04-01T11:21:46;14.64;70.12
68842;SHT35;55849;48.482;2.332;2023-04-01T11:25:19;14.65;71.82
68842;SHT35;55849;48.482;2.332;2023-04-01T11:28:42;14.58;74.66
68842;SHT35;55849;48.482;2.332;2023-04-01T11:31:54;14.49;74.88
68842;SHT35;55849;48.482;2.332;2023-04-01T11:35:22;14.42;76.19
68842;SHT35;55849;48.482;2.332;2023-04-01T11:38:38;14.44;76.49
68842;SHT35;55849;48.482;2.332;2023-04-01T11:42:09;14.47;77.43
68842;SHT35;55849;48.482;2.332;2023-04-01T11:45:21;14.54;74.50
68842;SHT35;55849;48.482;2.332;2023-04-01T11:48:51;14.55;75.56
68842;SHT35;55849;48.482;2.332;2023-04-01T11:52:21;14.65;73.97
68842;SHT35;55849;48.482;2.332;2023-04-01T11:55:28;14.68;75.29
68842;SHT35;55849;48.482;2.332;2023-04-01T11:58:58;14.69;73.80
68842;SHT35;55849;48.482;2.332;2023-04-01T12:02:11;14.61;76.18
68842;SHT35;55849;48.482;2.332;2023-04-01T12:05:25;14.44;75.94
68842;SHT35;55849;48.482;2.332;2023-04-01T12:08:43;14.34;77.73
68842;SHT35;55849;48.482;2.332;2023-04-01T12:11:54;14.33;77.12
68842;SHT35;55849;48.482;2.332;2023-04-01T12:15:11;14.30;78.42
68842;SHT35;55849;48.482;2.332;2023-04-01T12:18:20;14.34;79.09
68842;SHT35;55849;48.482;2.332;2023-04-01T12:21:28;14.41;79.89
68842;SHT35;55849;48.482;2.332;2023-04-01T12:24:45;14.54;79.33
68842;SHT35;55849;48.482;2.332;2023-04-01T12:27:53;14.64;77.95
68842;SHT35;55849;48.482;2.332;2023-04-01T12:31:14;14.79;77.49
68842;SHT35;55849;48.482;2.332;2023-04-01T12:34:41;14.90;78.46
68842;SHT35;55849;48.482;2.332;2023-04-01T12:37:55;15.04;77.39
68842;SHT35;55849;48.482;2.332;2023-04-01T12:41:09;15.16;77.42
68842;SHT35;55849;48.482;2.332;2023-04-01T12:44:33;15.27;75.14
68842;SHT35;55849;48.482;2.332;2023-04-01T12:48:03;15.48;77.11
68842;SHT35;55849;48.482;2.332;2023-04-01T12:58:40;16.18;73.47
68842;SHT35;55849;48.482;2.332;2023-04-01T13:02:00;16.38;74.44
68842;SHT35;55849;48.482;2.332;2023-04-01T13:05:23;16.49;73.21
68842;SHT35;55849;48.482;2.332;2023-04-01T13:08:38;16.66;71.98
68842;SHT35;55849;48.482;2.332;2023-04-01T13:11:59;16.80;71.30
68842;SHT35;55849;48.482;2.332;2023-04-01T13:15:21;17.00;71.47
68842;SHT35;55849;48.482;2.332;2023-04-01T13:18:32;17.15;71.49
68842;SHT35;55849;48.482;2.332;2023-04-01T13:21:45;17.32;69.46
68842;SHT35;55849;48.482;2.332;2023-04-01T13:24:57;17.57;70.08
68842;SHT35;55849;48.482;2.332;2023-04-01T13:28:09;17.76;68.15
68842;SHT35;55849;48.482;2.332;2023-04-01T13:31:31;17.80;65.79
68842;SHT35;55849;48.482;2.332;2023-04-01T13:34:42;17.70;66.52
68842;SHT35;55849;48.482;2.332;2023-04-01T13:37:57;17.52;66.04
68842;SHT35;55849;48.482;2.332;2023-04-01T13:41:13;17.43;67.90
68842;SHT35;55849;48.482;2.332;2023-04-01T13:44:24;17.46;68.02
68842;SHT35;55849;48.482;2.332;2023-04-01T13:47:54;17.59;67.32
68842;SHT35;55849;48.482;2.332;2023-04-01T13:51:10;17.69;65.49
68842;SHT35;55849;48.482;2.332;2023-04-01T13:58:22;17.91;64.98
68842;SHT35;55849;48.482;2.332;2023-04-01T14:01:33;18.11;63.76
68842;SHT35;55849;48.482;2.332;2023-04-01T14:04:56;18.29;63.28
68842;SHT35;55849;48.482;2.332;2023-04-01T14:08:09;18.46;63.37
68842;SHT35;55849;48.482;2.332;2023-04-01T14:11:18;18.71;62.29
68842;SHT35;55849;48.482;2.332;2023-04-01T14:14:31;18.97;62.24
68842;SHT35;55849;48.482;2.332;2023-04-01T14:17:43;19.21;62.06
68842;SHT35;55849;48.482;2.332;2023-04-01T14:20:57;19.42;60.51
68842;SHT35;55849;48.482;2.332;2023-04-01T14:27:55;19.46;58.65
68842;SHT35;55849;48.482;2.332;2023-04-01T14:31:20;19.25;63.80
68842;SHT35;55849;48.482;2.332;2023-04-01T14:34:37;19.02;65.23
68842;SHT35;55849;48.482;2.332;2023-04-01T14:38:01;18.77;65.33
68842;SHT35;55849;48.482;2.332;2023-04-01T14:41:18;18.52;66.46
68842;SHT35;55849;48.482;2.332;2023-04-01T14:47:58;18.09;68.30
68842;SHT35;55849;48.482;2.332;2023-04-01T14:51:10;17.98;67.35
68842;SHT35;55849;48.482;2.332;2023-04-01T14:54:17;17.82;65.90
68842;SHT35;55849;48.482;2.332;2023-04-01T14:57:24;17.74;64.09
68842;SHT35;55849;48.482;2.332;2023-04-01T15:00:41;17.66;68.30
68842;SHT35;55849;48.482;2.332;2023-04-01T15:03:52;17.82;65.73
68842;SHT35;55849;48.482;2.332;2023-04-01T15:07:07;17.87;66.13
68842;SHT35;55849;48.482;2.332;2023-04-01T15:10:30;17.87;64.26
68842;SHT35;55849;48.482;2.332;2023-04-01T15:13:51;17.74;64.10
68842;SHT35;55849;48.482;2.332;2023-04-01T15:17:05;17.61;64.24
68842;SHT35;55849;48.482;2.332;2023-04-01T15:20:48;17.39;64.08
68842;SHT35;55849;48.482;2.332;2023-04-01T15:23:58;17.17;64.52
68842;SHT35;55849;48.482;2.332;2023-04-01T15:27:30;16.97;64.52
68842;SHT35;55849;48.482;2.332;2023-04-01T15:30:37;16.83;64.38
68842;SHT35;55849;48.482;2.332;2023-04-01T15:33:48;16.68;64.82
68842;SHT35;55849;48.482;2.332;2023-04-01T15:36:55;16.59;64.77
68842;SHT35;55849;48.482;2.332;2023-04-01T15:40:05;16.47;65.26
68842;SHT35;55849;48.482;2.332;2023-04-01T15:43:25;16.40;64.78
68842;SHT35;55849;48.482;2.332;2023-04-01T15:46:43;16.37;64.72
68842;SHT35;55849;48.482;2.332;2023-04-01T15:49:50;16.31;64.63
68842;SHT35;55849;48.482;2.332;2023-04-01T15:53:03;16.28;64.95
68842;SHT35;55849;48.482;2.332;2023-04-01T15:56:19;16.24;65.14
68842;SHT35;55849;48.482;2.332;2023-04-01T15:59:51;16.22;64.28
68842;SHT35;55849;48.482;2.332;2023-04-01T16:03:13;16.17;64.75
68842;SHT35;55849;48.482;2.332;2023-04-01T16:06:53;16.11;64.58
68842;SHT35;55849;48.482;2.332;2023-04-01T16:10:13;16.06;64.75
68842;SHT35;55849;48.482;2.332;2023-04-01T16:13:30;16.03;65.45
68842;SHT35;55849;48.482;2.332;2023-04-01T16:16:47;15.99;65.26
68842;SHT35;55849;48.482;2.332;2023-04-01T16:19:56;15.92;66.42
68842;SHT35;55849;48.482;2.332;2023-04-01T16:23:04;15.87;66.40
68842;SHT35;55849;48.482;2.332;2023-04-01T16:26:16;15.89;66.14
68842;SHT35;55849;48.482;2.332;2023-04-01T16:29:27;15.86;66.44
68842;SHT35;55849;48.482;2.332;2023-04-01T16:32:37;15.85;66.98
68842;SHT35;55849;48.482;2.332;2023-04-01T16:35:46;15.83;66.61
68842;SHT35;55849;48.482;2.332;2023-04-01T16:38:55;15.81;67.28
68842;SHT35;55849;48.482;2.332;2023-04-01T16:42:16;15.79;66.75
68842;SHT35;55849;48.482;2.332;2023-04-01T16:45:30;15.82;67.18
68842;SHT35;55849;48.482;2.332;2023-04-01T16:48:58;15.83;67.40
68842;SHT35;55849;48.482;2.332;2023-04-01T16:52:29;15.86;66.98
68842;SHT35;55849;48.482;2.332;2023-04-01T16:55:35;15.87;66.75
68842;SHT35;55849;48.482;2.332;2023-04-01T16:58:59;15.89;67.21
68842;SHT35;55849;48.482;2.332;2023-04-01T17:02:11;15.89;67.46
68842;SHT35;55849;48.482;2.332;2023-04-01T17:05:15;15.89;67.66
68842;SHT35;55849;48.482;2.332;2023-04-01T17:08:24;15.86;68.31
68842;SHT35;55849;48.482;2.332;2023-04-01T17:11:33;15.83;69.34
68842;SHT35;55849;48.482;2.332;2023-04-01T17:14:44;15.76;70.59
68842;SHT35;55849;48.482;2.332;2023-04-01T17:17:54;15.72;70.98
68842;SHT35;55849;48.482;2.332;2023-04-01T17:21:04;15.63;71.08
68842;SHT35;55849;48.482;2.332;2023-04-01T17:24:23;15.57;71.14
68842;SHT35;55849;48.482;2.332;2023-04-01T17:27:36;15.50;71.71
68842;SHT35;55849;48.482;2.332;2023-04-01T17:30:44;15.41;72.32
68842;SHT35;55849;48.482;2.332;2023-04-01T17:34:01;15.35;72.38
68842;SHT35;55849;48.482;2.332;2023-04-01T17:37:19;15.27;72.70
68842;SHT35;55849;48.482;2.332;2023-04-01T17:40:35;15.26;73.56
68842;SHT35;55849;48.482;2.332;2023-04-01T17:43:45;15.23;73.47
68842;SHT35;55849;48.482;2.332;2023-04-01T17:50:30;15.14;73.76
68842;SHT35;55849;48.482;2.332;2023-04-01T17:53:47;15.06;72.36
68842;SHT35;55849;48.482;2.332;2023-04-01T17:56:59;14.99;72.95
68842;SHT35;55849;48.482;2.332;2023-04-01T18:00:18;14.90;72.93
68842;SHT35;55849;48.482;2.332;2023-04-01T18:07:12;14.82;73.47
68842;SHT35;55849;48.482;2.332;2023-04-01T18:10:25;14.76;73.42
68842;SHT35;55849;48.482;2.332;2023-04-01T18:14:02;14.75;74.13
68842;SHT35;55849;48.482;2.332;2023-04-01T18:17:18;14.69;73.56
68842;SHT35;55849;48.482;2.332;2023-04-01T18:20:33;14.65;73.20
68842;SHT35;55849;48.482;2.332;2023-04-01T18:23:43;14.60;73.42
68842;SHT35;55849;48.482;2.332;2023-04-01T18:26:50;14.57;73.79
68842;SHT35;55849;48.482;2.332;2023-04-01T18:30:05;14.55;74.09
68842;SHT35;55849;48.482;2.332;2023-04-01T18:33:18;14.51;73.22
68842;SHT35;55849;48.482;2.332;2023-04-01T18:36:26;14.42;74.22
68842;SHT35;55849;48.482;2.332;2023-04-01T18:39:38;14.36;73.55
68842;SHT35;55849;48.482;2.332;2023-04-01T18:42:50;14.29;73.62
68842;SHT35;55849;48.482;2.332;2023-04-01T18:45:57;14.27;74.54
68842;SHT35;55849;48.482;2.332;2023-04-01T18:49:06;14.20;74.27
68842;SHT35;55849;48.482;2.332;2023-04-01T18:52:15;14.19;74.61
68842;SHT35;55849;48.482;2.332;2023-04-01T18:55:29;14.17;74.31
68842;SHT35;55849;48.482;2.332;2023-04-01T18:58:34;14.06;75.36
68842;SHT35;55849;48.482;2.332;2023-04-01T19:01:39;14.08;75.71
68842;SHT35;55849;48.482;2.332;2023-04-01T19:04:47;14.06;74.27
68842;SHT35;55849;48.482;2.332;2023-04-01T19:07:56;14.03;74.94
68842;SHT35;55849;48.482;2.332;2023-04-01T19:11:21;14.06;74.78
68842;SHT35;55849;48.482;2.332;2023-04-01T19:14:37;14.03;74.70
68842;SHT35;55849;48.482;2.332;2023-04-01T19:17:54;13.99;74.69
68842;SHT35;55849;48.482;2.332;2023-04-01T19:21:03;13.96;75.21
68842;SHT35;55849;48.482;2.332;2023-04-01T19:27:35;13.96;74.98
68842;SHT35;55849;48.482;2.332;2023-04-01T19:30:50;13.96;75.56
68842;SHT35;55849;48.482;2.332;2023-04-01T19:34:01;13.95;75.55
68842;SHT35;55849;48.482;2.332;2023-04-01T19:37:11;13.92;74.43
68842;SHT35;55849;48.482;2.332;2023-04-01T19:40:40;13.89;75.22
68842;SHT35;55849;48.482;2.332;2023-04-01T19:44:00;13.86;74.79
68842;SHT35;55849;48.482;2.332;2023-04-01T19:47:14;13.83;75.25
68842;SHT35;55849;48.482;2.332;2023-04-01T19:50:29;13.82;75.08
68842;SHT35;55849;48.482;2.332;2023-04-01T19:53:38;13.78;75.32
68842;SHT35;55849;48.482;2.332;2023-04-01T19:56:47;13.77;75.55
68842;SHT35;55849;48.482;2.332;2023-04-01T19:59:56;13.75;75.63
68842;SHT35;55849;48.482;2.332;2023-04-01T20:03:04;13.74;75.50
68842;SHT35;55849;48.482;2.332;2023-04-01T20:06:17;13.70;74.81
68842;SHT35;55849;48.482;2.332;2023-04-01T20:09:42;13.68;75.74
68842;SHT35;55849;48.482;2.332;2023-04-01T20:12:51;13.68;75.87
68842;SHT35;55849;48.482;2.332;2023-04-01T20:16:00;13.68;75.76
68842;SHT35;55849;48.482;2.332;2023-04-01T20:19:07;13.62;75.82
68842;SHT35;55849;48.482;2.332;2023-04-01T20:22:23;13.61;75.16
68842;SHT35;55849;48.482;2.332;2023-04-01T20:25:30;13.57;74.96
68842;SHT35;55849;48.482;2.332;2023-04-01T20:28:42;13.53;76.08
68842;SHT35;55849;48.482;2.332;2023-04-01T20:31:53;13.51;75.42
68842;SHT35;55849;48.482;2.332;2023-04-01T20:35:23;13.50;75.90
68842;SHT35;55849;48.482;2.332;2023-04-01T20:42:29;13.46;75.88
68842;SHT35;55849;48.482;2.332;2023-04-01T20:45:38;13.47;75.72
68842;SHT35;55849;48.482;2.332;2023-04-01T20:49:20;13.48;75.84
68842;SHT35;55849;48.482;2.332;2023-04-01T20:52:32;13.44;75.61
68842;SHT35;55849;48.482;2.332;2023-04-01T20:56:02;13.43;75.69
68842;SHT35;55849;48.482;2.332;2023-04-01T20:59:23;13.44;75.93
68842;SHT35;55849;48.482;2.332;2023-04-01T21:02:36;13.43;76.42
68842;SHT35;55849;48.482;2.332;2023-04-01T21:06:15;13.43;76.25
68842;SHT35;55849;48.482;2.332;2023-04-01T21:09:35;13.44;75.86
68842;SHT35;55849;48.482;2.332;2023-04-01T21:12:48;13.47;75.75
68842;SHT35;55849;48.482;2.332;2023-04-01T21:16:06;13.43;76.25
68842;SHT35;55849;48.482;2.332;2023-04-01T21:19:25;13.40;75.37
68842;SHT35;55849;48.482;2.332;2023-04-01T21:22:49;13.40;75.47
68842;SHT35;55849;48.482;2.332;2023-04-01T21:26:03;13.39;76.02
68842;SHT35;55849;48.482;2.332;2023-04-01T21:29:24;13.39;76.29